Pleasant Hills, Pennsylvania
Current Conditions -  °F | °C
As of 5:53 PM on Tuesday 27 Jan 2015 (Local Time) from KAGC Reporting Station
Light Snow Light Snow  
Wind Chill:   Ceiling: 1900
Heat Index: 20°   Visibility: 2mi
Dew Point: 13°   Wind: 13mph
Humidity: 74%   Direction: 320°NW
Pressure: 30"   Gusts: 21mph
Location:  40.3383°N, 79.9805°W
Report Text: KAGC 272253Z 32011G18KT 2SM -SN BKN019 OVC024 M07/M11 A3000 RMK AO2 SLP186 P0000 T10671106
Loading
Personal Weather Stations






























Interactive Weather Map New forecast layout! Learn more

10-Day Weather Forecast

Advertisements
Track Severe Weather on mobile